createdAt,value
2022-12-01T00:01:06.207Z,15.88
2022-12-01T00:03:33.581Z,16.30
2022-12-01T00:06:00.914Z,16.08
2022-12-01T00:08:29.091Z,17.17
2022-12-01T00:10:56.243Z,15.48
2022-12-01T00:13:22.858Z,15.57
2022-12-01T00:15:49.461Z,14.40
2022-12-01T00:18:18.832Z,17.90
2022-12-01T00:20:45.416Z,17.20
2022-12-01T00:23:11.895Z,16.10
2022-12-01T00:25:38.403Z,16.48
2022-12-01T00:28:04.839Z,12.32
2022-12-01T00:30:31.295Z,13.45
2022-12-01T00:32:57.728Z,16.52
2022-12-01T00:35:24.191Z,15.93
2022-12-01T00:37:50.642Z,14.77
2022-12-01T00:40:17.276Z,15.75
2022-12-01T00:42:43.713Z,14.20
2022-12-01T00:45:10.907Z,16.17
2022-12-01T00:47:37.522Z,12.68
2022-12-01T00:50:04.264Z,14.55
2022-12-01T00:52:30.676Z,15.45
2022-12-01T00:54:57.113Z,16.00
2022-12-01T00:57:23.531Z,13.07
2022-12-01T00:59:50.487Z,17.50
2022-12-01T01:02:17.235Z,16.73
2022-12-01T01:04:43.938Z,16.95
2022-12-01T01:07:10.405Z,16.20
2022-12-01T01:09:37.290Z,15.57
2022-12-01T01:12:03.874Z,16.80
2022-12-01T01:14:30.323Z,13.07
2022-12-01T01:16:56.850Z,13.15
2022-12-01T01:19:23.975Z,15.35
2022-12-01T01:21:50.517Z,16.00
2022-12-01T01:24:17.294Z,15.57
2022-12-01T01:26:43.760Z,13.23
2022-12-01T01:29:10.349Z,12.07
2022-12-01T01:31:36.856Z,15.07
2022-12-01T01:34:03.817Z,16.65
2022-12-01T01:36:30.933Z,16.15
2022-12-01T01:38:57.403Z,13.57
2022-12-01T01:41:24.725Z,13.23
2022-12-01T01:43:54.982Z,11.98
2022-12-01T01:46:24.260Z,15.38
2022-12-01T01:48:55.134Z,15.85
2022-12-01T01:51:30.648Z,15.45
2022-12-01T01:54:04.110Z,12.40
2022-12-01T01:56:30.938Z,14.23
2022-12-01T01:58:59.165Z,15.23
2022-12-01T02:01:25.620Z,12.77
2022-12-01T02:03:54.403Z,14.77
2022-12-01T02:06:23.957Z,15.45
2022-12-01T02:08:50.788Z,14.35
2022-12-01T02:11:32.834Z,14.20
2022-12-01T02:14:24.983Z,16.23
2022-12-01T02:17:13.250Z,13.60
2022-12-01T02:19:45.804Z,13.38
2022-12-01T02:22:30.013Z,13.70
2022-12-01T02:25:41.312Z,12.75
2022-12-01T02:28:48.168Z,12.73
2022-12-01T02:31:22.588Z,14.13
2022-12-01T02:33:53.059Z,12.30
2022-12-01T02:36:37.963Z,13.35
2022-12-01T02:42:40.034Z,12.57
2022-12-01T02:45:11.929Z,14.52
2022-12-01T02:47:40.994Z,12.68
2022-12-01T02:50:10.075Z,13.82
2022-12-01T02:52:38.437Z,15.38
2022-12-01T02:55:05.194Z,12.10
2022-12-01T02:57:31.676Z,15.07
2022-12-01T02:59:59.919Z,12.45
2022-12-01T03:02:43.846Z,14.65
2022-12-01T03:05:32.901Z,12.13
2022-12-01T03:08:05.193Z,12.38
2022-12-01T03:10:52.138Z,13.80
2022-12-01T03:13:21.511Z,13.60
2022-12-01T03:16:04.414Z,13.20
2022-12-01T03:18:42.345Z,14.52
2022-12-01T03:21:28.279Z,14.60
2022-12-01T03:24:08.722Z,10.27
2022-12-01T03:26:37.441Z,15.02
2022-12-01T03:29:13.492Z,14.68
2022-12-01T03:31:45.891Z,12.40
2022-12-01T03:34:28.301Z,14.10
2022-12-01T03:37:03.912Z,16.17
2022-12-01T03:39:33.423Z,14.88
2022-12-01T03:42:13.415Z,15.35
2022-12-01T03:44:46.256Z,13.90
2022-12-01T03:47:17.275Z,12.15
2022-12-01T03:49:45.660Z,14.73
2022-12-01T03:52:36.983Z,13.57
2022-12-01T03:55:22.562Z,12.70
2022-12-01T03:57:58.277Z,14.13
2022-12-01T04:00:25.130Z,12.75
2022-12-01T04:02:56.813Z,15.13
2022-12-01T04:05:25.437Z,17.25
2022-12-01T04:07:52.422Z,18.98
2022-12-01T04:10:19.086Z,15.57
2022-12-01T04:12:45.620Z,12.60
2022-12-01T04:15:14.326Z,16.38
2022-12-01T04:17:45.089Z,12.45
2022-12-01T04:20:15.881Z,16.48
2022-12-01T04:22:42.365Z,14.27
2022-12-01T04:25:09.762Z,14.05
2022-12-01T04:27:36.720Z,17.30
2022-12-01T04:30:05.346Z,14.10
2022-12-01T04:32:31.766Z,14.20
2022-12-01T04:34:58.211Z,16.30
2022-12-01T04:37:25.009Z,14.93
2022-12-01T04:39:51.815Z,13.85
2022-12-01T04:42:18.475Z,14.40
2022-12-01T04:44:44.929Z,12.63
2022-12-01T04:47:11.347Z,13.90
2022-12-01T04:49:37.819Z,16.50
2022-12-01T04:52:04.496Z,12.75
2022-12-01T04:54:30.929Z,18.08
2022-12-01T04:56:57.387Z,16.10
2022-12-01T04:59:23.923Z,13.63
2022-12-01T05:01:50.506Z,16.67
2022-12-01T05:04:17.011Z,16.23
2022-12-01T05:06:43.560Z,13.90
2022-12-01T05:09:17.127Z,17.48
2022-12-01T05:11:44.740Z,13.35
2022-12-01T05:14:11.195Z,18.95
2022-12-01T05:16:37.699Z,19.77
2022-12-01T05:19:24.898Z,15.02
2022-12-01T05:21:51.970Z,18.25
2022-12-01T05:24:19.712Z,21.83
2022-12-01T05:26:46.231Z,16.00
2022-12-01T05:29:13.689Z,16.35
2022-12-01T05:31:40.225Z,18.08
2022-12-01T05:34:07.522Z,19.02
2022-12-01T05:36:33.996Z,18.67
2022-12-01T05:39:00.434Z,13.50
2022-12-01T05:41:26.899Z,20.23
2022-12-01T05:43:53.344Z,18.80
2022-12-01T05:46:19.907Z,15.68
2022-12-01T05:48:47.197Z,18.25
2022-12-01T05:51:16.155Z,20.90
2022-12-01T05:53:43.439Z,19.85
2022-12-01T05:56:10.042Z,17.20
2022-12-01T05:58:36.521Z,18.05
2022-12-01T06:01:03.935Z,21.50
2022-12-01T06:03:30.521Z,18.40
2022-12-01T06:05:57.002Z,14.20
2022-12-01T06:08:23.515Z,16.67
2022-12-01T06:10:49.995Z,16.70
2022-12-01T06:13:16.550Z,21.42
2022-12-01T06:15:43.106Z,16.25
2022-12-01T06:18:09.548Z,18.45
2022-12-01T06:20:35.986Z,15.02
2022-12-01T06:23:02.483Z,17.90
2022-12-01T06:25:28.945Z,17.67
2022-12-01T06:27:57.386Z,18.42
2022-12-01T06:30:24.339Z,19.55
2022-12-01T06:32:50.818Z,20.45
2022-12-01T06:35:17.259Z,20.95
2022-12-01T06:37:43.707Z,16.85
2022-12-01T06:40:10.942Z,20.52
2022-12-01T06:42:37.366Z,21.50
2022-12-01T06:45:04.067Z,20.77
2022-12-01T06:47:30.800Z,18.52
2022-12-01T06:49:57.337Z,18.50
2022-12-01T06:52:23.824Z,19.63
2022-12-01T06:54:50.281Z,17.88
2022-12-01T06:57:17.139Z,19.17
2022-12-01T06:59:43.882Z,19.67
2022-12-01T07:02:11.493Z,19.38
2022-12-01T07:04:38.013Z,15.70
2022-12-01T07:07:05.626Z,20.63
2022-12-01T07:09:32.073Z,16.80
2022-12-01T07:11:58.489Z,16.65
2022-12-01T07:14:26.713Z,15.15
2022-12-01T07:16:53.427Z,18.90
2022-12-01T07:19:19.995Z,14.50
2022-12-01T07:21:46.437Z,18.48
2022-12-01T07:24:13.171Z,16.02
2022-12-01T07:26:41.085Z,15.90
2022-12-01T07:29:09.246Z,18.35
2022-12-01T07:31:37.057Z,16.15
2022-12-01T07:34:05.053Z,17.52
2022-12-01T07:36:31.575Z,16.05
2022-12-01T07:38:58.099Z,14.85
2022-12-01T07:41:24.572Z,15.55
2022-12-01T07:43:51.131Z,15.27
2022-12-01T07:46:23.052Z,19.25
2022-12-01T07:48:51.503Z,18.75
2022-12-01T07:51:18.097Z,18.70
2022-12-01T07:53:46.433Z,19.77
2022-12-01T07:56:13.769Z,16.98
2022-12-01T07:58:40.620Z,19.02
2022-12-01T08:01:12.741Z,16.85
2022-12-01T08:03:40.128Z,17.67
2022-12-01T08:06:07.805Z,14.82
2022-12-01T08:08:36.050Z,17.90
2022-12-01T08:11:09.666Z,16.63
2022-12-01T08:13:36.286Z,17.77
2022-12-01T08:16:05.231Z,15.13
2022-12-01T08:18:37.844Z,19.17
2022-12-01T08:21:05.608Z,20.35
2022-12-01T08:23:32.100Z,15.02
2022-12-01T08:26:03.056Z,14.90
2022-12-01T08:28:29.819Z,13.98
2022-12-01T08:30:56.606Z,19.30
2022-12-01T08:33:23.615Z,15.90
2022-12-01T08:35:50.062Z,17.73
2022-12-01T08:38:16.908Z,13.13
2022-12-01T08:40:43.346Z,18.10
2022-12-01T08:43:15.211Z,14.70
2022-12-01T08:45:49.453Z,19.98
2022-12-01T08:48:15.892Z,15.18
2022-12-01T08:50:42.324Z,19.80
2022-12-01T08:53:08.755Z,18.27
2022-12-01T08:55:35.232Z,15.93
2022-12-01T08:58:01.645Z,16.25
2022-12-01T09:00:28.761Z,20.50
2022-12-01T09:02:55.299Z,20.55
2022-12-01T09:05:21.814Z,20.98
2022-12-01T09:08:08.302Z,20.08
2022-12-01T09:10:34.753Z,21.27
2022-12-01T09:13:01.211Z,22.90
2022-12-01T09:15:27.657Z,20.40
2022-12-01T09:17:54.103Z,18.13
2022-12-01T09:20:20.678Z,19.58
2022-12-01T09:22:47.136Z,18.73
2022-12-01T09:25:14.720Z,19.63
2022-12-01T09:27:41.233Z,21.75
2022-12-01T09:30:08.309Z,20.98
2022-12-01T09:32:34.724Z,18.60
2022-12-01T09:35:01.150Z,20.77
2022-12-01T09:37:27.581Z,19.15
2022-12-01T09:39:54.025Z,20.08
2022-12-01T09:42:32.245Z,19.58
2022-12-01T09:45:02.681Z,21.55
2022-12-01T09:47:33.097Z,24.20
2022-12-01T09:50:23.980Z,21.40
2022-12-01T09:53:15.417Z,19.95
2022-12-01T09:55:42.345Z,21.75
2022-12-01T09:58:18.036Z,21.83
2022-12-01T10:00:46.922Z,20.55
2022-12-01T10:03:40.455Z,21.63
2022-12-01T10:06:27.103Z,21.42
2022-12-01T10:09:13.102Z,17.83
2022-12-01T10:11:42.606Z,21.23
2022-12-01T10:14:19.774Z,21.05
2022-12-01T10:17:39.700Z,21.70
2022-12-01T10:20:20.698Z,21.30
2022-12-01T10:23:02.531Z,19.15
2022-12-01T10:25:42.224Z,21.67
2022-12-01T10:28:36.919Z,19.48
2022-12-01T10:31:34.488Z,19.63
2022-12-01T10:34:07.872Z,23.00
2022-12-01T10:36:34.734Z,19.75
2022-12-01T10:39:04.601Z,20.50
2022-12-01T10:41:35.631Z,18.90
2022-12-01T10:44:05.486Z,21.00
2022-12-01T10:46:52.403Z,20.42
2022-12-01T10:49:19.806Z,19.20
2022-12-01T10:52:06.995Z,19.98
2022-12-01T10:54:36.994Z,21.50
2022-12-01T10:57:05.300Z,18.98
2022-12-01T10:59:37.817Z,21.23
2022-12-01T11:02:14.781Z,21.77
2022-12-01T11:05:02.705Z,22.70
2022-12-01T11:07:33.438Z,18.48
2022-12-01T11:10:14.438Z,24.20
2022-12-01T11:12:43.036Z,21.85
2022-12-01T11:15:20.896Z,22.25
2022-12-01T11:17:47.579Z,21.40
2022-12-01T11:20:27.994Z,22.58
2022-12-01T11:23:09.582Z,23.92
2022-12-01T11:25:36.694Z,22.88
2022-12-01T11:28:04.440Z,23.42
2022-12-01T11:30:32.695Z,20.80
2022-12-01T11:33:02.023Z,25.60
2022-12-01T11:35:32.080Z,24.35
2022-12-01T11:40:56.380Z,23.63
2022-12-01T11:43:30.586Z,23.45
2022-12-01T11:45:59.641Z,18.88
2022-12-01T11:48:27.550Z,22.55
2022-12-01T11:51:07.292Z,19.83
2022-12-01T11:53:37.326Z,22.15
2022-12-01T11:56:14.894Z,21.25
2022-12-01T11:58:43.008Z,22.08
2022-12-01T12:01:22.186Z,18.33
2022-12-01T12:03:54.066Z,22.58
2022-12-01T12:12:46.818Z,19.92
2022-12-01T12:15:44.573Z,20.58
2022-12-01T12:18:25.244Z,21.08
2022-12-01T12:21:19.662Z,18.70
2022-12-01T12:24:13.441Z,18.02
2022-12-01T12:26:50.074Z,20.00
2022-12-01T12:29:45.570Z,19.00
2022-12-01T12:32:46.080Z,18.63
2022-12-01T12:35:36.287Z,21.25
2022-12-01T12:38:38.256Z,20.08
2022-12-01T12:41:30.784Z,22.65
2022-12-01T12:44:22.751Z,23.40
2022-12-01T12:47:21.601Z,21.40
2022-12-01T12:50:00.264Z,19.75
2022-12-01T12:52:33.526Z,19.27
2022-12-01T12:55:15.413Z,21.25
2022-12-01T12:58:29.075Z,19.67
2022-12-01T13:01:03.505Z,17.75
2022-12-01T13:03:45.287Z,17.23
2022-12-01T13:06:19.676Z,18.08
2022-12-01T13:08:53.370Z,16.42
2022-12-01T13:11:46.088Z,16.98
2022-12-01T13:14:33.038Z,18.15
2022-12-01T13:17:15.697Z,20.73
2022-12-01T13:19:42.833Z,19.65
2022-12-01T13:22:12.483Z,19.23
2022-12-01T13:24:39.230Z,17.38
2022-12-01T13:27:13.068Z,18.58
2022-12-01T13:29:46.154Z,17.50
2022-12-01T13:32:36.758Z,17.52
2022-12-01T13:37:35.591Z,17.95
2022-12-01T13:40:22.876Z,19.58
2022-12-01T13:43:10.637Z,21.52
2022-12-01T13:45:40.119Z,18.35
2022-12-01T13:48:47.959Z,18.95
2022-12-01T13:51:14.825Z,17.52
2022-12-01T13:54:05.347Z,16.75
2022-12-01T13:56:46.653Z,20.08
2022-12-01T13:59:41.192Z,17.98
2022-12-01T14:02:17.761Z,16.77
2022-12-01T14:04:44.423Z,15.68
2022-12-01T14:07:34.112Z,15.63
2022-12-01T14:10:22.545Z,17.80
2022-12-01T14:12:50.224Z,17.17
2022-12-01T14:15:33.728Z,13.63
2022-12-01T14:18:05.512Z,19.20
2022-12-01T14:20:37.791Z,17.63
2022-12-01T14:23:28.928Z,17.25
2022-12-01T14:26:19.451Z,16.73
2022-12-01T14:28:55.067Z,18.17
2022-12-01T14:31:33.729Z,16.77
2022-12-01T14:34:19.357Z,18.75
2022-12-01T14:36:56.789Z,16.90
2022-12-01T14:39:27.064Z,15.73
2022-12-01T14:41:58.532Z,16.48
2022-12-01T14:44:44.683Z,18.52
2022-12-01T14:47:20.867Z,17.83
2022-12-01T14:49:50.817Z,17.80
2022-12-01T14:52:39.783Z,19.40
2022-12-01T14:55:29.530Z,18.55
2022-12-01T14:58:05.059Z,16.30
2022-12-01T15:00:36.433Z,16.75
2022-12-01T15:03:09.646Z,19.23
2022-12-01T15:05:41.908Z,21.52
2022-12-01T15:11:21.393Z,17.52
2022-12-01T15:13:56.247Z,20.17
2022-12-01T15:16:29.222Z,18.40
2022-12-01T15:18:56.265Z,19.98
2022-12-01T15:21:31.822Z,19.25
2022-12-01T15:24:04.378Z,17.90
2022-12-01T15:26:32.273Z,18.13
2022-12-01T15:29:31.222Z,20.30
2022-12-01T15:32:04.714Z,19.70
2022-12-01T15:34:35.004Z,18.02
2022-12-01T15:37:05.343Z,18.35
2022-12-01T15:40:11.907Z,23.10
2022-12-01T15:42:43.893Z,21.23
2022-12-01T15:45:21.261Z,18.92
2022-12-01T15:47:50.006Z,22.80
2022-12-01T15:50:30.982Z,19.10
2022-12-01T15:52:58.647Z,22.63
2022-12-01T15:55:32.609Z,19.67
2022-12-01T15:58:00.269Z,20.85
2022-12-01T16:00:27.048Z,22.00
2022-12-01T16:02:56.572Z,20.58
2022-12-01T16:05:29.944Z,23.05
2022-12-01T16:08:13.502Z,20.58
2022-12-01T16:10:40.520Z,19.23
2022-12-01T16:13:35.654Z,22.52
2022-12-01T16:16:23.068Z,20.40
2022-12-01T16:18:55.795Z,20.45
2022-12-01T16:21:22.917Z,15.95
2022-12-01T16:24:01.095Z,19.35
2022-12-01T16:26:28.440Z,17.23
2022-12-01T16:28:55.686Z,17.70
2022-12-01T16:31:22.635Z,18.95
2022-12-01T16:34:00.316Z,18.73
2022-12-01T16:36:27.155Z,18.88
2022-12-01T16:38:53.637Z,17.95
2022-12-01T16:41:36.383Z,16.90
2022-12-01T16:44:27.590Z,20.33
2022-12-01T16:46:52.574Z,15.20
2022-12-01T16:49:19.038Z,16.77
2022-12-01T16:52:11.114Z,15.38
2022-12-01T16:54:31.940Z,15.75
2022-12-01T16:56:58.371Z,18.35
2022-12-01T16:59:25.261Z,13.50
2022-12-01T17:01:51.747Z,16.58
2022-12-01T17:04:18.344Z,20.67
2022-12-01T17:06:44.784Z,15.13
2022-12-01T17:09:11.263Z,20.33
2022-12-01T17:11:37.699Z,15.38
2022-12-01T17:14:04.211Z,17.40
2022-12-01T17:16:30.735Z,16.33
2022-12-01T17:18:57.247Z,17.90
2022-12-01T17:21:23.740Z,18.60
2022-12-01T17:23:50.174Z,17.33
2022-12-01T17:26:18.989Z,17.15
2022-12-01T17:28:46.728Z,18.90
2022-12-01T17:31:13.850Z,18.75
2022-12-01T17:33:41.062Z,20.42
2022-12-01T17:36:11.265Z,16.98
2022-12-01T17:38:39.331Z,15.70
2022-12-01T17:41:09.101Z,17.00
2022-12-01T17:43:37.389Z,16.33
2022-12-01T17:46:05.701Z,20.58
2022-12-01T17:48:40.828Z,17.75
2022-12-01T17:51:08.887Z,14.38
2022-12-01T17:53:36.086Z,13.63
2022-12-01T17:56:02.704Z,16.30
2022-12-01T17:58:30.201Z,19.48
2022-12-01T18:00:56.633Z,19.42
2022-12-01T18:03:23.127Z,17.98
2022-12-01T18:05:57.147Z,21.25
2022-12-01T18:08:25.692Z,19.52
2022-12-01T18:10:52.915Z,19.88
2022-12-01T18:13:21.455Z,19.65
2022-12-01T18:15:48.810Z,16.55
2022-12-01T18:18:15.518Z,17.13
2022-12-01T18:20:43.645Z,19.40
2022-12-01T18:23:11.142Z,19.00
2022-12-01T18:25:38.946Z,22.33
2022-12-01T18:28:06.136Z,21.30
2022-12-01T18:30:33.612Z,21.33
2022-12-01T18:33:01.001Z,18.38
2022-12-01T18:35:31.803Z,20.05
2022-12-01T18:37:58.699Z,19.85
2022-12-01T18:40:26.019Z,18.48
2022-12-01T18:42:52.443Z,20.83
2022-12-01T18:45:21.499Z,21.58
2022-12-01T18:47:48.144Z,21.67
2022-12-01T18:50:14.937Z,17.73
2022-12-01T18:52:41.556Z,19.50
2022-12-01T18:55:08.757Z,19.23
2022-12-01T18:57:35.554Z,19.25
2022-12-01T19:00:04.673Z,25.83
2022-12-01T19:02:31.211Z,21.30
2022-12-01T19:04:57.750Z,24.13
2022-12-01T19:07:29.530Z,19.00
2022-12-01T19:09:56.339Z,27.63
2022-12-01T19:12:24.411Z,22.15
2022-12-01T19:14:52.949Z,23.05
2022-12-01T19:17:19.947Z,25.23
2022-12-01T19:19:47.368Z,25.35
2022-12-01T19:22:14.023Z,23.10
2022-12-01T19:24:40.477Z,16.50
2022-12-01T19:27:07.124Z,22.10
2022-12-01T19:29:33.672Z,19.77
2022-12-01T19:32:00.614Z,21.48
2022-12-01T19:34:27.491Z,19.30
2022-12-01T19:36:56.804Z,21.33
2022-12-01T19:39:23.973Z,18.23
2022-12-01T19:41:51.965Z,21.40
2022-12-01T19:44:18.665Z,19.33
2022-12-01T19:46:45.402Z,17.10
2022-12-01T19:49:11.874Z,18.08
2022-12-01T19:51:39.523Z,15.32
2022-12-01T19:54:15.421Z,18.63
2022-12-01T19:56:42.669Z,21.20
2022-12-01T19:59:11.209Z,19.13
2022-12-01T20:01:38.011Z,19.52
2022-12-01T20:04:04.625Z,21.17
2022-12-01T20:06:33.340Z,18.55
2022-12-01T20:09:02.021Z,16.85
2022-12-01T20:11:29.848Z,18.42
2022-12-01T20:13:56.693Z,20.25
2022-12-01T20:16:24.584Z,17.75
2022-12-01T20:18:52.210Z,18.20
2022-12-01T20:21:24.208Z,19.50
2022-12-01T20:24:04.566Z,20.17
2022-12-01T20:26:37.298Z,17.25
2022-12-01T20:29:08.195Z,17.05
2022-12-01T20:31:35.344Z,15.10
2022-12-01T20:34:04.947Z,19.35
2022-12-01T20:36:31.521Z,19.05
2022-12-01T20:38:58.031Z,19.13
2022-12-01T20:41:24.471Z,18.73
2022-12-01T20:43:50.927Z,18.92
2022-12-01T20:46:17.473Z,16.20
2022-12-01T20:48:44.072Z,15.25
2022-12-01T20:51:13.939Z,19.95
2022-12-01T20:53:42.436Z,20.73
2022-12-01T20:56:17.190Z,17.80
2022-12-01T20:58:43.717Z,20.23
2022-12-01T21:01:12.657Z,20.42
2022-12-01T21:03:41.977Z,18.95
2022-12-01T21:06:09.961Z,17.33
2022-12-01T21:08:41.638Z,20.60
2022-12-01T21:11:48.021Z,17.33
2022-12-01T21:14:35.174Z,18.23
2022-12-01T21:17:11.080Z,17.02
2022-12-01T21:19:53.315Z,21.63
2022-12-01T21:22:20.129Z,23.70
2022-12-01T21:24:51.062Z,20.15
2022-12-01T21:27:18.204Z,20.73
2022-12-01T21:29:47.617Z,20.02
2022-12-01T21:32:26.939Z,19.27
2022-12-01T21:34:55.529Z,21.63
2022-12-01T21:37:24.582Z,19.90
2022-12-01T21:39:52.928Z,20.08
2022-12-01T21:42:22.146Z,15.32
2022-12-01T21:44:49.205Z,17.92
2022-12-01T21:47:20.257Z,20.60
2022-12-01T21:49:50.594Z,19.13
2022-12-01T21:52:20.142Z,20.20
2022-12-01T21:54:47.062Z,24.05
2022-12-01T21:57:47.309Z,21.70
2022-12-01T22:00:25.663Z,20.63
2022-12-01T22:03:30.943Z,22.33
2022-12-01T22:06:29.907Z,20.70
2022-12-01T22:09:11.588Z,21.25
2022-12-01T22:11:38.050Z,22.00
2022-12-01T22:14:21.831Z,22.00
2022-12-01T22:16:56.225Z,22.63
2022-12-01T22:19:27.657Z,22.38
2022-12-01T22:22:09.319Z,21.63
2022-12-01T22:24:49.574Z,21.33
2022-12-01T22:27:26.922Z,21.67
2022-12-01T22:30:19.478Z,21.60
2022-12-01T22:33:05.460Z,24.05
2022-12-01T22:35:44.978Z,20.65
2022-12-01T22:38:20.765Z,20.50
2022-12-01T22:41:26.600Z,20.30
2022-12-01T22:44:00.467Z,22.23
2022-12-01T22:46:33.782Z,22.33
2022-12-01T22:49:08.046Z,15.38
2022-12-01T22:51:56.875Z,20.23
2022-12-01T22:54:34.823Z,15.63
2022-12-01T22:57:14.801Z,21.15
2022-12-01T22:59:44.617Z,18.25
2022-12-01T23:02:23.473Z,20.98
2022-12-01T23:04:55.753Z,21.38
2022-12-01T23:07:36.820Z,17.52
2022-12-01T23:10:17.044Z,19.33
2022-12-01T23:12:45.233Z,22.05
2022-12-01T23:15:27.255Z,21.98
2022-12-01T23:17:53.873Z,18.23
2022-12-01T23:20:20.268Z,21.45
2022-12-01T23:22:47.499Z,20.45
2022-12-01T23:25:18.155Z,21.23
2022-12-01T23:27:51.045Z,24.75
2022-12-01T23:30:19.357Z,22.88
2022-12-01T23:32:55.699Z,22.90
2022-12-01T23:35:22.138Z,21.63
2022-12-01T23:37:48.602Z,25.20
2022-12-01T23:40:20.516Z,21.75
2022-12-01T23:42:47.470Z,20.25
2022-12-01T23:45:19.293Z,21.35
2022-12-01T23:50:24.694Z,22.13
2022-12-01T23:52:51.762Z,22.23
2022-12-01T23:55:23.047Z,22.08
2022-12-01T23:57:49.987Z,24.55
